Terminal Aerodrome Forecast
Issued by NWS

Home | Current Version | Previous Version | Text Only | Print | Product List | Glossary On
Versions: 1 2 3 4 5 6 7 8 9 10 11 12 13 14 15 16 17 18 19 20 21 22 23 24 25
000
FTUS46 KSGX 230913 AAA
TAFSAN
TAF AMD
KSAN 230913Z 2309/2412 VRB04KT P6SM VCSH SCT020 BKN030
      TEMPO 2309/2313 5SM -SHRA BR BKN025
     FM231600 VRB05KT P6SM SCT025 BKN035
     FM231900 28009KT P6SM FEW025 SCT040
     FM240200 VRB05KT P6SM BKN027
     FM240900 VRB04KT P6SM BKN022=

USA.gov is the U.S. government's official web portal to all federal, state and local government web resources and services.